Time;durP1;ratioP1;P1;durP2;ratioP2;P2;SDS_P1;SDS_P2;PMS_P1;PMS_P2;Temp;Humidity;BMP_temperature;BMP_pressure;BME280_temperature;BME280_humidity;BME280_pressure;Samples;Min_cycle;Max_cycle;Signal;HPM_P1;HPM_P2
2021/08/02 00:02:33;;;;;;;;;;;16.50;81.80;;;;;;5086107;28;19921;-83
2021/08/02 00:05:02;;;;;;;;;;;16.50;82.10;;;;;;5109832;27;20354;-83
2021/08/02 00:07:28;;;;;;;;;;;16.60;82.00;;;;;;5075755;28;19912;-83
2021/08/02 00:09:56;;;;;;;;;;;16.60;82.20;;;;;;5074664;28;19963;-83
2021/08/02 00:12:27;;;;;;;;;;;16.60;81.90;;;;;;5076950;28;19958;-83
2021/08/02 00:14:55;;;;;;;;;;;16.60;81.90;;;;;;5076795;28;19912;-83
2021/08/02 00:17:21;;;;;;;;;;;16.60;82.30;;;;;;5076784;28;19977;-83
2021/08/02 00:19:46;;;;;;;;;;;16.50;81.40;;;;;;5076879;28;19912;-83
2021/08/02 00:22:12;;;;;;;;;;;16.50;81.90;;;;;;5075786;28;19938;-83
2021/08/02 00:24:37;;;;;;;;;;;16.50;81.90;;;;;;5076485;28;19909;-83
2021/08/02 00:27:03;;;;;;;;;;;16.40;81.80;;;;;;5088026;28;19956;-83
2021/08/02 00:29:30;;;;;;;;;;;16.40;81.90;;;;;;5078048;28;19917;-84
2021/08/02 00:31:56;;;;;;;;;;;16.40;82.10;;;;;;5076462;28;19913;-83
2021/08/02 00:34:21;;;;;;;;;;;16.40;82.40;;;;;;5074911;28;20254;-83
2021/08/02 00:36:52;;;;;;;;;;;16.40;82.30;;;;;;5074373;28;20488;-85
2021/08/02 00:39:18;;;;;;;;;;;16.40;82.20;;;;;;5075983;28;19913;-85
2021/08/02 00:41:58;;;;;;;;;;;16.40;82.30;;;;;;5087606;28;19944;-85
2021/08/02 00:44:26;;;;;;;;;;;16.40;82.40;;;;;;5076169;28;19916;-85
2021/08/02 00:46:56;;;;;;;;;;;16.40;82.60;;;;;;5076382;28;19912;-85
2021/08/02 00:49:24;;;;;;;;;;;16.40;82.70;;;;;;5074908;28;20015;-84
2021/08/02 00:51:50;;;;;;;;;;;16.40;82.70;;;;;;5105456;28;19916;-84
2021/08/02 00:54:18;;;;;;;;;;;16.50;83.00;;;;;;5070432;28;19959;-84
2021/08/02 00:56:45;;;;;;;;;;;16.50;82.80;;;;;;5075914;28;19912;-85
2021/08/02 00:59:12;;;;;;;;;;;16.50;82.90;;;;;;5070567;28;19913;-84
2021/08/02 01:01:37;;;;;;;;;;;16.50;82.90;;;;;;5060085;28;19926;-84
2021/08/02 01:04:03;;;;;;;;;;;16.50;83.00;;;;;;5075248;28;19909;-84
2021/08/02 01:06:31;;;;;;;;;;;16.60;83.40;;;;;;5075533;28;20449;-84
2021/08/02 01:08:58;;;;;;;;;;;16.60;83.40;;;;;;5075177;28;19947;-84
2021/08/02 01:11:24;;;;;;;;;;;16.60;83.30;;;;;;5075614;28;19916;-84
2021/08/02 01:13:50;;;;;;;;;;;16.70;83.60;;;;;;5075905;28;19951;-84
2021/08/02 01:16:17;;;;;;;;;;;16.70;83.60;;;;;;5074804;28;19975;-84
2021/08/02 01:18:43;;;;;;;;;;;16.70;83.20;;;;;;5074428;28;19981;-84
2021/08/02 01:21:10;;;;;;;;;;;16.70;83.40;;;;;;5069345;28;20319;-84
2021/08/02 01:23:36;;;;;;;;;;;16.70;83.40;;;;;;5069948;28;20324;-83
2021/08/02 01:26:02;;;;;;;;;;;16.80;83.10;;;;;;5108066;27;19970;-84
2021/08/02 01:28:27;;;;;;;;;;;16.80;83.20;;;;;;5075372;28;19913;-83
2021/08/02 01:30:55;;;;;;;;;;;16.70;83.20;;;;;;5074781;28;20011;-82
2021/08/02 01:33:28;;;;;;;;;;;16.70;83.20;;;;;;5069589;28;20023;-83
2021/08/02 01:35:55;;;;;;;;;;;16.80;83.70;;;;;;5074988;28;19913;-83
2021/08/02 01:38:20;;;;;;;;;;;16.80;83.30;;;;;;5075254;28;19912;-82
2021/08/02 01:40:46;;;;;;;;;;;16.80;83.20;;;;;;5090748;28;19920;-81
2021/08/02 01:43:11;;;;;;;;;;;16.80;83.40;;;;;;5074412;28;19916;-82
2021/08/02 01:45:53;;;;;;;;;;;16.80;83.30;;;;;;5074185;28;19915;-82
2021/08/02 01:48:35;;;;;;;;;;;16.80;83.30;;;;;;5069468;28;19920;-81
2021/08/02 01:51:00;;;;;;;;;;;16.80;83.40;;;;;;5074684;28;19912;-84
2021/08/02 01:53:29;;;;;;;;;;;16.80;83.70;;;;;;5081935;28;19973;-83
2021/08/02 01:56:04;;;;;;;;;;;16.80;83.70;;;;;;5086450;28;19920;-84
2021/08/02 01:58:32;;;;;;;;;;;16.80;83.70;;;;;;5073736;28;19927;-81
2021/08/02 02:00:58;;;;;;;;;;;16.90;83.90;;;;;;5072722;28;19917;-81
2021/08/02 02:03:25;;;;;;;;;;;16.90;84.00;;;;;;5074721;28;20434;-83
2021/08/02 02:05:59;;;;;;;;;;;16.90;83.80;;;;;;5074368;28;19955;-84
2021/08/02 02:08:28;;;;;;;;;;;16.90;83.70;;;;;;5074703;28;19912;-83
2021/08/02 02:10:55;;;;;;;;;;;16.90;83.60;;;;;;5087567;28;20011;-83
2021/08/02 02:13:23;;;;;;;;;;;16.90;83.60;;;;;;5074369;28;19912;-83
2021/08/02 02:15:51;;;;;;;;;;;16.90;83.80;;;;;;5071803;28;19909;-83
2021/08/02 02:18:17;;;;;;;;;;;16.90;83.70;;;;;;5074528;28;19935;-83
2021/08/02 02:20:44;;;;;;;;;;;16.90;83.80;;;;;;5072473;28;20396;-84
2021/08/02 02:23:11;;;;;;;;;;;16.80;83.60;;;;;;5067837;28;19923;-84
2021/08/02 02:25:37;;;;;;;;;;;16.80;83.90;;;;;;5069598;28;19919;-81
2021/08/02 02:28:03;;;;;;;;;;;16.90;83.80;;;;;;5073501;28;19913;-83
2021/08/02 02:30:29;;;;;;;;;;;16.80;83.80;;;;;;5074322;28;20273;-83
2021/08/02 02:32:54;;;;;;;;;;;16.80;83.70;;;;;;5106401;27;20284;-83
2021/08/02 02:35:21;;;;;;;;;;;16.80;83.80;;;;;;5074114;28;19929;-82
2021/08/02 02:37:47;;;;;;;;;;;16.70;83.50;;;;;;5072991;28;20369;-83
2021/08/02 02:40:13;;;;;;;;;;;16.70;83.70;;;;;;5073000;28;19920;-83
2021/08/02 02:42:39;;;;;;;;;;;16.70;84.00;;;;;;5072841;28;20337;-82
2021/08/02 02:45:05;;;;;;;;;;;16.70;84.30;;;;;;5073943;28;19995;-86
2021/08/02 02:47:31;;;;;;;;;;;16.70;84.70;;;;;;5072844;28;19959;-84
2021/08/02 02:49:56;;;;;;;;;;;16.80;84.70;;;;;;5075178;28;19915;-83
2021/08/02 02:52:23;;;;;;;;;;;16.80;84.40;;;;;;5072453;28;19912;-83
2021/08/02 02:54:49;;;;;;;;;;;16.80;84.70;;;;;;5073239;28;19915;-83
2021/08/02 02:57:15;;;;;;;;;;;16.80;84.30;;;;;;5073595;28;19920;-83
2021/08/02 02:59:41;;;;;;;;;;;16.80;84.30;;;;;;5073716;28;19912;-83
2021/08/02 03:02:07;;;;;;;;;;;16.80;84.40;;;;;;5073267;28;19920;-83
2021/08/02 03:04:35;;;;;;;;;;;16.80;84.30;;;;;;5106208;28;19920;-83
2021/08/02 03:07:01;;;;;;;;;;;16.80;84.60;;;;;;5073008;28;20001;-83
2021/08/02 03:09:29;;;;;;;;;;;16.80;84.60;;;;;;5073627;28;20038;-83
2021/08/02 03:11:54;;;;;;;;;;;16.80;84.40;;;;;;5073546;28;20082;-83
2021/08/02 03:14:21;;;;;;;;;;;16.80;84.80;;;;;;5073474;28;20057;-83
2021/08/02 03:16:46;;;;;;;;;;;16.80;84.70;;;;;;5071984;28;19912;-84
2021/08/02 03:19:12;;;;;;;;;;;16.80;84.60;;;;;;5071395;28;20469;-84
2021/08/02 03:21:37;;;;;;;;;;;16.80;84.40;;;;;;5073563;28;20447;-84
2021/08/02 03:24:07;;;;;;;;;;;16.80;84.30;;;;;;5073308;28;20440;-84
2021/08/02 03:26:42;;;;;;;;;;;16.80;84.50;;;;;;5073431;28;19965;-84
2021/08/02 03:29:15;;;;;;;;;;;16.80;84.60;;;;;;5073331;28;19912;-83
2021/08/02 03:32:03;;;;;;;;;;;16.80;84.40;;;;;;5064557;28;19923;-84
2021/08/02 03:34:32;;;;;;;;;;;16.80;84.30;;;;;;5067092;28;19928;-82
2021/08/02 03:36:59;;;;;;;;;;;16.80;84.40;;;;;;5071360;28;19909;-81
2021/08/02 03:39:25;;;;;;;;;;;16.70;84.40;;;;;;5067281;28;20372;-81
2021/08/02 03:41:52;;;;;;;;;;;16.80;84.50;;;;;;5072148;28;20188;-83
2021/08/02 03:44:18;;;;;;;;;;;16.80;84.60;;;;;;5050533;28;19917;-84
2021/08/02 03:46:44;;;;;;;;;;;16.70;84.30;;;;;;5054944;28;19916;-83
2021/08/02 03:49:10;;;;;;;;;;;16.70;84.10;;;;;;5071803;28;20003;-84
2021/08/02 03:51:45;;;;;;;;;;;16.70;84.30;;;;;;5055275;28;19912;-83
2021/08/02 03:54:11;;;;;;;;;;;16.70;84.40;;;;;;5055117;28;19909;-84
2021/08/02 03:56:37;;;;;;;;;;;16.60;84.20;;;;;;5072936;28;20003;-83
2021/08/02 03:59:03;;;;;;;;;;;16.50;84.00;;;;;;5055067;28;19916;-85
2021/08/02 04:01:29;;;;;;;;;;;16.40;84.40;;;;;;5072486;28;19928;-85
2021/08/02 04:03:54;;;;;;;;;;;16.40;84.50;;;;;;5072237;28;19916;-85
2021/08/02 04:06:20;;;;;;;;;;;16.30;84.10;;;;;;5088366;28;19920;-85
2021/08/02 04:08:45;;;;;;;;;;;16.30;84.20;;;;;;5054678;28;19920;-85
2021/08/02 04:11:11;;;;;;;;;;;16.30;84.30;;;;;;5073080;28;19943;-85
2021/08/02 04:13:36;;;;;;;;;;;16.20;84.20;;;;;;5072795;28;19912;-83
2021/08/02 04:16:02;;;;;;;;;;;16.20;84.50;;;;;;5053895;28;19908;-83
2021/08/02 04:18:27;;;;;;;;;;;16.20;84.90;;;;;;5054750;28;20308;-83
2021/08/02 04:20:54;;;;;;;;;;;16.20;85.10;;;;;;5054515;28;19947;-83
2021/08/02 04:23:21;;;;;;;;;;;16.20;84.70;;;;;;5088234;28;19915;-83
2021/08/02 04:25:46;;;;;;;;;;;16.20;84.90;;;;;;5072704;28;19999;-83
2021/08/02 04:28:12;;;;;;;;;;;16.20;84.50;;;;;;5071973;28;19955;-83
2021/08/02 04:30:37;;;;;;;;;;;16.10;84.70;;;;;;5054282;28;19912;-83
2021/08/02 04:33:03;;;;;;;;;;;16.10;84.90;;;;;;5054581;28;19932;-83
2021/08/02 04:35:28;;;;;;;;;;;16.10;85.20;;;;;;5088231;28;20007;-83
2021/08/02 04:37:54;;;;;;;;;;;16.10;85.20;;;;;;5072586;28;19924;-83
2021/08/02 04:40:19;;;;;;;;;;;16.10;85.10;;;;;;5053953;28;19927;-83
2021/08/02 04:42:45;;;;;;;;;;;16.20;85.30;;;;;;5049710;28;19927;-83
2021/08/02 04:45:10;;;;;;;;;;;16.20;85.30;;;;;;5053107;28;20004;-83
2021/08/02 04:47:36;;;;;;;;;;;16.20;85.30;;;;;;5076034;28;20334;-83
2021/08/02 04:50:02;;;;;;;;;;;16.20;85.10;;;;;;5091803;28;19908;-83
2021/08/02 04:52:27;;;;;;;;;;;16.20;85.60;;;;;;5091721;28;19913;-82
2021/08/02 04:54:53;;;;;;;;;;;16.30;85.70;;;;;;5075468;28;19916;-82
2021/08/02 04:57:18;;;;;;;;;;;16.30;85.90;;;;;;5075963;28;19908;-81
2021/08/02 04:59:44;;;;;;;;;;;16.40;86.00;;;;;;5075675;28;19963;-82
2021/08/02 05:02:09;;;;;;;;;;;16.50;85.90;;;;;;5090633;28;19916;-82
2021/08/02 05:04:35;;;;;;;;;;;16.50;85.70;;;;;;5075841;28;19912;-82
2021/08/02 05:07:00;;;;;;;;;;;16.50;85.80;;;;;;5057355;28;19908;-81
2021/08/02 05:09:26;;;;;;;;;;;16.60;85.80;;;;;;5075487;28;20410;-81
2021/08/02 05:11:52;;;;;;;;;;;16.60;85.90;;;;;;5057790;28;19913;-81
2021/08/02 05:14:17;;;;;;;;;;;16.60;85.80;;;;;;5075426;28;20338;-81
2021/08/02 05:16:44;;;;;;;;;;;16.60;86.00;;;;;;5075927;28;19912;-81
2021/08/02 05:19:12;;;;;;;;;;;16.60;86.00;;;;;;5076815;28;19915;-82
2021/08/02 05:21:38;;;;;;;;;;;16.60;86.10;;;;;;5095605;28;19920;-81
2021/08/02 05:24:04;;;;;;;;;;;16.60;85.60;;;;;;5095953;28;19915;-83
2021/08/02 05:26:29;;;;;;;;;;;16.60;85.60;;;;;;5095727;28;19912;-83
2021/08/02 05:28:55;;;;;;;;;;;16.60;85.60;;;;;;5095391;28;20352;-83
2021/08/02 05:31:20;;;;;;;;;;;16.60;85.30;;;;;;5077075;28;19916;-83
2021/08/02 05:33:46;;;;;;;;;;;16.70;85.40;;;;;;5072743;28;20376;-83
2021/08/02 05:36:11;;;;;;;;;;;16.70;85.30;;;;;;5095575;28;19908;-83
2021/08/02 05:38:39;;;;;;;;;;;16.70;85.50;;;;;;5073058;28;19912;-83
2021/08/02 05:41:05;;;;;;;;;;;16.80;85.50;;;;;;5096884;28;19920;-83
2021/08/02 05:43:30;;;;;;;;;;;16.80;85.30;;;;;;5095390;28;20292;-83
2021/08/02 05:45:56;;;;;;;;;;;16.80;85.60;;;;;;5095138;28;19915;-83
2021/08/02 05:48:22;;;;;;;;;;;16.90;85.50;;;;;;5072904;28;19912;-83
2021/08/02 05:50:47;;;;;;;;;;;16.90;85.30;;;;;;5110847;27;20455;-81
2021/08/02 05:53:13;;;;;;;;;;;16.90;85.00;;;;;;5095161;28;19951;-80
2021/08/02 05:55:39;;;;;;;;;;;17.00;85.30;;;;;;5095117;28;19912;-81
2021/08/02 05:58:04;;;;;;;;;;;17.00;85.40;;;;;;5094297;28;19908;-81
2021/08/02 06:00:30;;;;;;;;;;;17.10;85.20;;;;;;5094971;28;20007;-81
2021/08/02 06:02:55;;;;;;;;;;;17.10;85.00;;;;;;5095090;28;19920;-81
2021/08/02 06:05:21;;;;;;;;;;;17.20;85.20;;;;;;5072483;28;19942;-81
2021/08/02 06:07:46;;;;;;;;;;;17.30;85.70;;;;;;5095073;28;19919;-81
2021/08/02 06:10:12;;;;;;;;;;;17.30;85.40;;;;;;5094205;28;19914;-83
2021/08/02 06:12:38;;;;;;;;;;;17.40;85.40;;;;;;5076581;28;19908;-82
2021/08/02 06:15:04;;;;;;;;;;;17.50;85.30;;;;;;5072331;28;19912;-83
2021/08/02 06:17:29;;;;;;;;;;;17.70;85.70;;;;;;5074772;28;20288;-81
2021/08/02 06:19:55;;;;;;;;;;;17.80;85.50;;;;;;5110606;27;19916;-81
2021/08/02 06:22:20;;;;;;;;;;;17.90;85.40;;;;;;5094407;28;20308;-82
2021/08/02 06:24:46;;;;;;;;;;;18.00;84.80;;;;;;5071742;28;19908;-82
2021/08/02 06:27:12;;;;;;;;;;;18.10;84.20;;;;;;5093872;28;20304;-82
2021/08/02 06:29:38;;;;;;;;;;;18.10;84.20;;;;;;5094363;28;19912;-82
2021/08/02 06:32:04;;;;;;;;;;;18.10;84.40;;;;;;5091530;28;19912;-80
2021/08/02 06:34:30;;;;;;;;;;;18.20;83.30;;;;;;5088474;28;19920;-81
2021/08/02 06:36:55;;;;;;;;;;;18.30;82.90;;;;;;5108697;28;19924;-81
2021/08/02 06:39:21;;;;;;;;;;;18.20;82.70;;;;;;5095308;28;20217;-81
2021/08/02 06:41:46;;;;;;;;;;;18.30;82.70;;;;;;5093354;28;20346;-82
2021/08/02 06:44:12;;;;;;;;;;;18.40;83.30;;;;;;5094103;28;19965;-79
2021/08/02 06:46:37;;;;;;;;;;;18.50;82.70;;;;;;5094428;28;19912;-85
2021/08/02 06:49:03;;;;;;;;;;;18.40;81.10;;;;;;5088646;28;20287;-86
2021/08/02 06:51:28;;;;;;;;;;;18.30;81.40;;;;;;5091083;28;20422;-87
2021/08/02 06:53:55;;;;;;;;;;;18.20;80.20;;;;;;5098431;28;19916;-84
2021/08/02 06:56:21;;;;;;;;;;;18.20;80.80;;;;;;5108153;28;19916;-89
2021/08/02 06:58:46;;;;;;;;;;;18.10;81.70;;;;;;5078355;28;19912;-91
2021/08/02 07:01:12;;;;;;;;;;;18.20;82.20;;;;;;5082222;28;20273;-89
2021/08/02 07:03:37;;;;;;;;;;;18.20;82.10;;;;;;5069494;28;20494;-88
2021/08/02 07:06:03;;;;;;;;;;;18.30;82.90;;;;;;5087259;28;20003;-85
2021/08/02 07:08:28;;;;;;;;;;;18.30;81.90;;;;;;5075846;28;19942;-85
2021/08/02 07:10:54;;;;;;;;;;;18.40;82.30;;;;;;5074661;28;19920;-85
2021/08/02 07:13:19;;;;;;;;;;;18.50;82.00;;;;;;5081111;28;19920;-88
2021/08/02 07:15:45;;;;;;;;;;;18.50;81.50;;;;;;5095405;28;19920;-88
2021/08/02 07:18:10;;;;;;;;;;;18.40;81.20;;;;;;5084935;28;19920;-87
2021/08/02 07:20:36;;;;;;;;;;;18.40;81.10;;;;;;5078899;28;19935;-87
2021/08/02 07:23:01;;;;;;;;;;;18.40;81.30;;;;;;5057608;28;19958;-93
2021/08/02 07:25:27;;;;;;;;;;;18.40;82.10;;;;;;5074731;28;20284;-86
2021/08/02 07:27:52;;;;;;;;;;;18.50;82.00;;;;;;5089728;28;19974;-87
2021/08/02 07:30:18;;;;;;;;;;;18.60;81.70;;;;;;5098558;28;19958;-87
2021/08/02 07:32:43;;;;;;;;;;;18.60;80.70;;;;;;5074018;28;20351;-86
2021/08/02 07:35:09;;;;;;;;;;;18.60;80.00;;;;;;5091095;28;20330;-90
2021/08/02 07:37:38;;;;;;;;;;;18.60;80.40;;;;;;5081748;28;20449;-87
2021/08/02 07:40:04;;;;;;;;;;;18.60;80.30;;;;;;5089163;28;19937;-87
2021/08/02 07:42:30;;;;;;;;;;;18.60;81.50;;;;;;5087108;28;19928;-84
2021/08/02 07:44:55;;;;;;;;;;;18.70;80.90;;;;;;5086412;28;19991;-86
2021/08/02 07:47:21;;;;;;;;;;;18.80;80.90;;;;;;5106566;28;19966;-87
2021/08/02 07:49:46;;;;;;;;;;;18.90;80.90;;;;;;5093911;28;19934;-85
2021/08/02 07:52:12;;;;;;;;;;;19.00;81.20;;;;;;5091137;28;19965;-89
2021/08/02 07:54:37;;;;;;;;;;;19.10;80.00;;;;;;5101801;28;20112;-89
2021/08/02 07:57:03;;;;;;;;;;;19.10;80.00;;;;;;5088069;28;20272;-90
2021/08/02 07:59:29;;;;;;;;;;;19.20;80.70;;;;;;5095588;28;20017;-84
2021/08/02 08:01:54;;;;;;;;;;;19.20;80.30;;;;;;5054919;28;19924;-86
2021/08/02 08:04:20;;;;;;;;;;;19.40;80.80;;;;;;5099014;28;19915;-89
2021/08/02 08:06:46;;;;;;;;;;;19.40;80.00;;;;;;5094670;28;19967;-88
2021/08/02 08:09:12;;;;;;;;;;;19.50;78.20;;;;;;5096051;28;20361;-89
2021/08/02 08:11:37;;;;;;;;;;;19.60;79.40;;;;;;5095705;28;19994;-86
2021/08/02 08:14:03;;;;;;;;;;;19.60;78.90;;;;;;5114710;28;19912;-90
2021/08/02 08:16:28;;;;;;;;;;;19.60;78.60;;;;;;5100645;28;20390;-92
2021/08/02 08:18:56;;;;;;;;;;;19.60;78.60;;;;;;5106886;28;20319;-91
2021/08/02 08:21:22;;;;;;;;;;;19.60;78.80;;;;;;5098912;28;19999;-88
2021/08/02 08:23:47;;;;;;;;;;;19.80;79.60;;;;;;5097103;28;19963;-86
2021/08/02 08:26:13;;;;;;;;;;;19.80;79.00;;;;;;5097641;28;19912;-93
2021/08/02 08:28:38;;;;;;;;;;;19.90;77.70;;;;;;5096571;28;19912;-91
2021/08/02 08:31:04;;;;;;;;;;;20.00;78.30;;;;;;5095190;28;19915;-91
2021/08/02 08:33:29;;;;;;;;;;;20.10;78.40;;;;;;5096424;28;19923;-81
2021/08/02 08:35:55;;;;;;;;;;;20.10;77.00;;;;;;5091921;28;20315;-84
2021/08/02 08:38:21;;;;;;;;;;;20.10;76.60;;;;;;5092161;28;19965;-83
2021/08/02 08:40:47;;;;;;;;;;;20.20;77.50;;;;;;5091595;28;20299;-83
2021/08/02 08:43:15;;;;;;;;;;;20.30;77.00;;;;;;5094465;28;19908;-83
2021/08/02 08:45:40;;;;;;;;;;;20.30;77.40;;;;;;5092980;28;20049;-86
2021/08/02 08:48:06;;;;;;;;;;;20.50;75.50;;;;;;5095184;28;20003;-74
2021/08/02 08:50:32;;;;;;;;;;;20.50;74.50;;;;;;5092155;28;19913;-85
2021/08/02 08:52:57;;;;;;;;;;;20.40;76.10;;;;;;5091504;28;19916;-88
2021/08/02 08:55:23;;;;;;;;;;;20.50;76.60;;;;;;5075162;28;20330;-87
2021/08/02 08:57:49;;;;;;;;;;;20.60;76.30;;;;;;5076742;28;19908;-91
2021/08/02 09:00:24;;;;;;;;;;;20.70;74.10;;;;;;5073988;28;19912;-87
2021/08/02 09:02:51;;;;;;;;;;;20.50;73.30;;;;;;5091479;28;19912;-88
2021/08/02 09:05:17;;;;;;;;;;;20.50;73.80;;;;;;5090183;28;20421;-86
2021/08/02 09:07:44;;;;;;;;;;;20.50;74.50;;;;;;5091227;28;19913;-88
2021/08/02 09:10:13;;;;;;;;;;;20.40;75.10;;;;;;5094748;28;20006;-91
2021/08/02 09:12:48;;;;;;;;;;;20.50;74.80;;;;;;5092669;28;19912;-87
2021/08/02 09:15:14;;;;;;;;;;;20.60;74.80;;;;;;5076343;28;19912;-95
2021/08/02 09:17:40;;;;;;;;;;;20.70;74.80;;;;;;5126091;28;19957;-92
2021/08/02 09:20:24;;;;;;;;;;;20.60;73.00;;;;;;5092673;28;20415;-89
2021/08/02 09:22:50;;;;;;;;;;;20.60;74.40;;;;;;5079149;28;19920;-91
2021/08/02 09:25:21;;;;;;;;;;;20.60;72.50;;;;;;5076816;28;19912;-87
2021/08/02 09:27:48;;;;;;;;;;;20.60;74.10;;;;;;5090618;28;19916;-87
2021/08/02 09:30:17;;;;;;;;;;;20.70;71.60;;;;;;5091937;28;19919;-88
2021/08/02 09:32:50;;;;;;;;;;;20.60;72.50;;;;;;5092069;28;19912;-86
2021/08/02 09:35:29;;;;;;;;;;;20.40;72.20;;;;;;5085544;28;20364;-86
2021/08/02 09:37:55;;;;;;;;;;;20.30;73.10;;;;;;5075525;28;19912;-86
2021/08/02 09:40:21;;;;;;;;;;;20.50;73.90;;;;;;5074308;28;20392;-86
2021/08/02 09:42:57;;;;;;;;;;;20.50;72.60;;;;;;5087821;28;19923;-86
2021/08/02 09:45:23;;;;;;;;;;;20.70;74.60;;;;;;5089718;28;19908;-85
2021/08/02 09:47:50;;;;;;;;;;;20.90;73.00;;;;;;5091264;28;19958;-85
2021/08/02 09:50:29;;;;;;;;;;;21.20;73.20;;;;;;5090366;28;19912;-85
2021/08/02 09:52:54;;;;;;;;;;;21.30;72.30;;;;;;5074932;28;19920;-91
2021/08/02 09:55:20;;;;;;;;;;;21.40;71.60;;;;;;5091126;28;19908;-90
2021/08/02 09:57:46;;;;;;;;;;;21.50;71.00;;;;;;5081446;28;20614;-90
2021/08/02 10:00:12;;;;;;;;;;;21.60;70.60;;;;;;5081833;28;19956;-86
2021/08/02 10:02:38;;;;;;;;;;;21.50;68.10;;;;;;5089268;28;19928;-85
2021/08/02 10:05:04;;;;;;;;;;;21.50;69.80;;;;;;5091167;28;20315;-84
2021/08/02 10:07:30;;;;;;;;;;;21.60;68.60;;;;;;5078665;28;19920;-83
2021/08/02 10:09:56;;;;;;;;;;;21.50;68.20;;;;;;5092812;28;19912;-84
2021/08/02 10:12:21;;;;;;;;;;;21.50;68.70;;;;;;5081253;28;20393;-84
2021/08/02 10:14:53;;;;;;;;;;;21.40;67.50;;;;;;5090015;28;19912;-84
2021/08/02 10:17:19;;;;;;;;;;;21.30;69.60;;;;;;5094969;28;19920;-84
2021/08/02 10:19:53;;;;;;;;;;;21.40;68.90;;;;;;5095084;28;19912;-85
2021/08/02 10:22:19;;;;;;;;;;;21.30;68.70;;;;;;5094348;28;19916;-90
2021/08/02 10:24:48;;;;;;;;;;;21.40;69.70;;;;;;5093122;28;19915;-89
2021/08/02 10:27:23;;;;;;;;;;;21.50;68.70;;;;;;5093619;28;19945;-88
2021/08/02 10:29:49;;;;;;;;;;;21.60;69.30;;;;;;5075894;28;19916;-85
2021/08/02 10:32:32;;;;;;;;;;;21.70;69.50;;;;;;5093263;28;19965;-83
2021/08/02 10:34:59;;;;;;;;;;;21.70;68.00;;;;;;5090325;28;19919;-83
2021/08/02 10:37:29;;;;;;;;;;;21.60;68.00;;;;;;5088644;28;19958;-86
2021/08/02 10:40:04;;;;;;;;;;;21.70;68.80;;;;;;5092265;28;19920;-85
2021/08/02 10:42:30;;;;;;;;;;;21.90;68.60;;;;;;5083233;28;19928;-88
2021/08/02 10:44:56;;;;;;;;;;;21.90;68.20;;;;;;5091604;28;19923;-87
2021/08/02 10:47:22;;;;;;;;;;;21.80;65.30;;;;;;5087617;28;20384;-91
2021/08/02 10:49:48;;;;;;;;;;;21.60;66.20;;;;;;5092011;28;19912;-88
2021/08/02 10:52:24;;;;;;;;;;;21.40;65.60;;;;;;5096320;28;20413;-91
2021/08/02 10:54:49;;;;;;;;;;;21.20;66.10;;;;;;5096833;28;19912;-89
2021/08/02 10:57:15;;;;;;;;;;;21.00;65.60;;;;;;5090871;28;19931;-85
2021/08/02 10:59:41;;;;;;;;;;;20.90;68.80;;;;;;5088621;28;19916;-87
2021/08/02 11:02:10;;;;;;;;;;;20.90;68.40;;;;;;5096126;28;20346;-86
2021/08/02 11:04:39;;;;;;;;;;;20.80;67.30;;;;;;5107853;28;19927;-89
2021/08/02 11:07:05;;;;;;;;;;;20.70;68.80;;;;;;5096645;28;19908;-87
2021/08/02 11:09:36;;;;;;;;;;;20.60;67.90;;;;;;5096853;28;19923;-83
2021/08/02 11:12:04;;;;;;;;;;;20.50;68.20;;;;;;5098085;28;19916;-90
2021/08/02 11:14:30;;;;;;;;;;;20.50;69.30;;;;;;5098793;28;19934;-90
2021/08/02 11:16:56;;;;;;;;;;;20.50;69.70;;;;;;5095783;28;19912;-90
2021/08/02 11:19:23;;;;;;;;;;;20.50;69.30;;;;;;5099257;28;20390;-88
2021/08/02 11:21:58;;;;;;;;;;;20.60;69.80;;;;;;5098014;28;19916;-87
2021/08/02 11:24:27;;;;;;;;;;;20.70;69.50;;;;;;5097944;28;19944;-86
2021/08/02 11:26:53;;;;;;;;;;;20.60;67.90;;;;;;5098198;28;19916;-89
2021/08/02 11:29:29;;;;;;;;;;;20.60;68.60;;;;;;5096641;28;19912;-86
2021/08/02 11:31:59;;;;;;;;;;;20.70;69.60;;;;;;5090393;28;19915;-87
2021/08/02 11:34:25;;;;;;;;;;;20.90;68.50;;;;;;5084804;28;19962;-90
2021/08/02 11:37:03;;;;;;;;;;;21.00;68.20;;;;;;5090971;28;19999;-81
2021/08/02 11:39:30;;;;;;;;;;;21.00;67.40;;;;;;5094501;28;19931;-82
2021/08/02 11:42:08;;;;;;;;;;;21.00;67.80;;;;;;5093033;28;19920;-81
2021/08/02 11:44:34;;;;;;;;;;;21.00;66.00;;;;;;5104359;28;19916;-83
2021/08/02 11:47:01;;;;;;;;;;;20.80;64.60;;;;;;5086031;28;19913;-83
2021/08/02 11:49:27;;;;;;;;;;;20.90;66.90;;;;;;5084035;28;19918;-84
2021/08/02 11:51:53;;;;;;;;;;;20.90;65.90;;;;;;5090691;28;19908;-83
2021/08/02 11:54:23;;;;;;;;;;;20.80;66.70;;;;;;5094995;28;20003;-83
2021/08/02 11:56:48;;;;;;;;;;;20.90;67.10;;;;;;5090981;28;20028;-83
2021/08/02 11:59:24;;;;;;;;;;;21.20;68.10;;;;;;5071640;28;20369;-82
2021/08/02 12:02:31;;;;;;;;;;;21.30;66.80;;;;;;5079784;28;19920;-87
2021/08/02 12:04:58;;;;;;;;;;;21.30;66.60;;;;;;5092495;28;19912;-91
2021/08/02 12:07:27;;;;;;;;;;;21.30;66.80;;;;;;5095095;28;19912;-82
2021/08/02 12:09:53;;;;;;;;;;;21.30;66.20;;;;;;5080917;28;19913;-80
2021/08/02 12:12:24;;;;;;;;;;;21.40;67.50;;;;;;5088518;28;19923;-80
2021/08/02 12:14:50;;;;;;;;;;;21.70;66.30;;;;;;5080916;28;20570;-80
2021/08/02 12:17:16;;;;;;;;;;;21.90;68.30;;;;;;5069317;22;20019;-86
2021/08/02 12:19:48;;;;;;;;;;;22.20;65.40;;;;;;5050742;28;19913;-92
2021/08/02 12:22:15;;;;;;;;;;;22.40;66.00;;;;;;5060781;28;19932;-90
2021/08/02 12:24:50;;;;;;;;;;;22.50;64.00;;;;;;5052789;28;19905;-92
2021/08/02 12:27:19;;;;;;;;;;;22.50;59.80;;;;;;5055968;28;19920;-91
2021/08/02 12:29:54;;;;;;;;;;;22.60;62.00;;;;;;5049003;28;20407;-90
2021/08/02 12:32:20;;;;;;;;;;;22.80;64.90;;;;;;5045647;28;19932;-93
2021/08/02 12:34:45;;;;;;;;;;;23.20;63.60;;;;;;5036171;28;19920;-89
2021/08/02 12:37:12;;;;;;;;;;;23.20;61.30;;;;;;5038600;28;19909;-91
2021/08/02 12:39:37;;;;;;;;;;;23.20;59.30;;;;;;5040665;28;19992;-87
2021/08/02 12:42:03;;;;;;;;;;;23.30;62.10;;;;;;5033439;28;20370;-89
2021/08/02 12:44:28;;;;;;;;;;;23.40;59.90;;;;;;5038112;28;19920;-90
2021/08/02 12:46:54;;;;;;;;;;;23.30;59.40;;;;;;5039683;28;19913;-95
2021/08/02 12:49:19;;;;;;;;;;;23.30;59.00;;;;;;5045623;28;19920;-90
2021/08/02 12:51:45;;;;;;;;;;;23.20;57.50;;;;;;5014586;28;19916;-95
2021/08/02 12:54:10;;;;;;;;;;;23.00;57.30;;;;;;5036131;28;19953;-94
2021/08/02 12:56:36;;;;;;;;;;;22.80;57.50;;;;;;5034926;28;20303;-92
2021/08/02 12:59:01;;;;;;;;;;;22.60;56.10;;;;;;5033517;28;19916;-91
2021/08/02 13:01:27;;;;;;;;;;;22.50;58.50;;;;;;5039126;28;19927;-92
2021/08/02 13:03:53;;;;;;;;;;;22.30;58.30;;;;;;5040857;28;19920;-88
2021/08/02 13:06:20;;;;;;;;;;;22.20;59.00;;;;;;5052938;28;19913;-94
2021/08/02 13:08:46;;;;;;;;;;;22.00;60.00;;;;;;5049904;28;19956;-95
2021/08/02 13:11:13;;;;;;;;;;;22.00;59.10;;;;;;5057897;28;19920;-94
2021/08/02 13:13:39;;;;;;;;;;;21.90;60.40;;;;;;5063382;28;19940;-90
2021/08/02 13:16:04;;;;;;;;;;;21.80;60.60;;;;;;5057404;28;19916;-93
2021/08/02 13:18:30;;;;;;;;;;;21.70;60.90;;;;;;5046269;28;19928;-89
2021/08/02 13:20:55;;;;;;;;;;;21.70;61.00;;;;;;5050279;28;19924;-94
2021/08/02 13:28:33;;;;;;;;;;;21.60;63.20;;;;;;5062817;28;19920;-81
2021/08/02 13:30:59;;;;;;;;;;;21.60;64.10;;;;;;5059984;28;19913;-92
2021/08/02 13:33:24;;;;;;;;;;;21.60;63.70;;;;;;5050136;28;20027;-89
2021/08/02 13:35:50;;;;;;;;;;;21.60;64.60;;;;;;5027468;28;19921;-92
2021/08/02 13:38:15;;;;;;;;;;;21.70;65.20;;;;;;5039639;28;19917;-89
2021/08/02 13:40:41;;;;;;;;;;;21.80;64.40;;;;;;5044032;28;19920;-91
2021/08/02 13:43:07;;;;;;;;;;;21.90;64.90;;;;;;5036974;28;20066;-92
2021/08/02 13:45:39;;;;;;;;;;;21.80;64.90;;;;;;5036700;28;19913;-90
2021/08/02 13:48:05;;;;;;;;;;;21.90;64.50;;;;;;5043712;28;19914;-90
2021/08/02 13:50:31;;;;;;;;;;;21.70;63.80;;;;;;5048365;28;20018;-89
2021/08/02 13:52:56;;;;;;;;;;;21.60;64.20;;;;;;5054221;28;19947;-88
2021/08/02 13:55:22;;;;;;;;;;;21.40;64.70;;;;;;5036255;28;19923;-89
2021/08/02 13:57:48;;;;;;;;;;;21.40;66.10;;;;;;5045924;28;20352;-91
2021/08/02 14:00:13;;;;;;;;;;;21.40;64.70;;;;;;5024674;28;19924;-87
2021/08/02 14:02:39;;;;;;;;;;;21.10;64.70;;;;;;5040312;28;19941;-90
2021/08/02 14:05:06;;;;;;;;;;;21.10;65.40;;;;;;5039259;28;20000;-90
2021/08/02 14:07:32;;;;;;;;;;;21.00;65.50;;;;;;5028601;28;20012;-89
2021/08/02 14:09:57;;;;;;;;;;;20.90;65.10;;;;;;5059155;28;20007;-88
2021/08/02 14:12:24;;;;;;;;;;;20.80;65.50;;;;;;5055425;28;19913;-88
2021/08/02 14:14:50;;;;;;;;;;;20.90;66.30;;;;;;5050787;28;19916;-88
2021/08/02 14:17:19;;;;;;;;;;;20.80;65.40;;;;;;5058820;28;20454;-91
2021/08/02 14:19:45;;;;;;;;;;;20.60;65.80;;;;;;5060288;28;19912;-89
2021/08/02 14:22:10;;;;;;;;;;;20.60;66.10;;;;;;5058262;28;20442;-86